createdAt,value
2022-10-30T00:01:42.034Z,99417.22
2022-10-30T00:04:08.576Z,99413.34
2022-10-30T00:06:35.117Z,99420.56
2022-10-30T00:09:03.007Z,99417.03
2022-10-30T00:11:29.533Z,99411.09
2022-10-30T00:13:56.250Z,99415.75
2022-10-30T00:16:22.777Z,99409.81
2022-10-30T00:18:49.287Z,99407.09
2022-10-30T00:21:16.057Z,99401.63
2022-10-30T00:23:45.892Z,99410.63
2022-10-30T00:26:14.522Z,99407.09
2022-10-30T00:28:41.048Z,99410.16
2022-10-30T00:31:07.684Z,99408.56
2022-10-30T00:33:34.325Z,99403.75
2022-10-30T00:36:01.079Z,99405.03
2022-10-30T00:38:27.659Z,99402.63
2022-10-30T00:40:54.167Z,99394.78
2022-10-30T00:43:30.841Z,99400.53
2022-10-30T00:45:59.881Z,99403.25
2022-10-30T00:48:26.686Z,99393.84
2022-10-30T00:50:54.270Z,99393.50
2022-10-30T00:53:21.942Z,99393.03
2022-10-30T00:55:52.303Z,99396.56
2022-10-30T00:58:24.094Z,99393.03
2022-10-30T01:00:54.854Z,99392.22
2022-10-30T01:03:23.541Z,99385.97
2022-10-30T01:05:54.865Z,99382.94
2022-10-30T01:08:21.439Z,99391.91
2022-10-30T01:10:48.284Z,99390.31
2022-10-30T01:13:16.087Z,99393.03
2022-10-30T01:15:53.374Z,99391.13
2022-10-30T01:18:34.954Z,99394.63
2022-10-30T01:21:14.854Z,99394.63
2022-10-30T01:23:53.708Z,99393.84
2022-10-30T01:26:32.277Z,99398.13
2022-10-30T01:29:12.611Z,99405.19
2022-10-30T01:31:50.674Z,99398.13
2022-10-30T01:34:21.215Z,99392.38
2022-10-30T01:36:54.994Z,99382.47
2022-10-30T01:39:24.231Z,99379.59
2022-10-30T01:41:50.962Z,99382.63
2022-10-30T01:44:20.791Z,99377.50
2022-10-30T01:47:02.237Z,99371.13
2022-10-30T01:50:13.055Z,99378.00
2022-10-30T01:52:47.460Z,99377.38
2022-10-30T01:55:32.505Z,99374.47
2022-10-30T01:58:05.967Z,99373.81
2022-10-30T02:00:32.586Z,99373.34
2022-10-30T02:02:59.736Z,99367.09
2022-10-30T02:05:36.379Z,99369.81
2022-10-30T02:08:03.018Z,99364.53
2022-10-30T02:10:31.415Z,99364.53
2022-10-30T02:12:57.930Z,99362.63
2022-10-30T02:15:24.573Z,99359.41
2022-10-30T02:17:51.170Z,99348.84
2022-10-30T02:20:19.797Z,99346.78
2022-10-30T02:22:46.555Z,99355.28
2022-10-30T02:25:13.966Z,99349.97
2022-10-30T02:27:40.670Z,99349.84
2022-10-30T02:30:08.911Z,99349.69
2022-10-30T02:32:35.635Z,99351.91
2022-10-30T02:35:02.785Z,99351.59
2022-10-30T02:37:30.710Z,99354.63
2022-10-30T02:39:57.205Z,99356.41
2022-10-30T02:42:23.737Z,99360.56
2022-10-30T02:44:50.244Z,99349.97
2022-10-30T02:47:16.880Z,99347.75
2022-10-30T02:49:44.541Z,99355.41
2022-10-30T02:52:11.270Z,99361.19
2022-10-30T02:54:39.145Z,99352.56
2022-10-30T02:57:05.768Z,99356.41
2022-10-30T02:59:32.287Z,99361.38
2022-10-30T03:01:58.855Z,99363.59
2022-10-30T03:04:25.539Z,99369.84
2022-10-30T03:06:52.149Z,99376.28
2022-10-30T03:09:18.677Z,99375.97
2022-10-30T03:11:46.953Z,99376.13
2022-10-30T03:14:13.768Z,99371.47
2022-10-30T03:16:40.405Z,99373.56
2022-10-30T03:19:06.902Z,99368.13
2022-10-30T03:21:33.589Z,99371.16
2022-10-30T03:24:00.199Z,99365.03
2022-10-30T03:26:26.785Z,99373.88
2022-10-30T03:28:54.625Z,99373.38
2022-10-30T03:31:21.579Z,99377.84
2022-10-30T03:33:48.082Z,99378.81
2022-10-30T03:36:15.026Z,99378.66
2022-10-30T03:38:42.270Z,99372.88
2022-10-30T03:41:09.023Z,99372.25
2022-10-30T03:43:35.674Z,99382.47
2022-10-30T03:46:03.706Z,99380.06
2022-10-30T03:48:30.370Z,99379.31
2022-10-30T03:50:58.412Z,99375.44
2022-10-30T03:53:25.826Z,99377.50
2022-10-30T03:55:53.279Z,99380.72
2022-10-30T03:58:19.851Z,99377.50
2022-10-30T04:00:46.555Z,99383.41
2022-10-30T04:03:14.543Z,99379.72
2022-10-30T04:05:41.202Z,99384.19
2022-10-30T04:08:12.208Z,99370.44
2022-10-30T04:10:42.652Z,99384.50
2022-10-30T04:13:10.477Z,99380.34
2022-10-30T04:15:37.070Z,99387.22
2022-10-30T04:18:03.778Z,99387.84
2022-10-30T04:20:31.819Z,99378.09
2022-10-30T04:22:59.834Z,99383.38
2022-10-30T04:25:27.119Z,99386.22
2022-10-30T04:27:53.639Z,99383.00
2022-10-30T04:30:21.702Z,99378.84
2022-10-30T04:32:48.874Z,99379.63
2022-10-30T04:35:16.327Z,99379.75
2022-10-30T04:37:52.186Z,99379.91
2022-10-30T04:40:18.706Z,99371.09
2022-10-30T04:42:47.005Z,99372.50
2022-10-30T04:45:15.255Z,99376.97
2022-10-30T04:47:42.155Z,99375.69
2022-10-30T04:50:09.611Z,99376.31
2022-10-30T04:52:36.709Z,99367.16
2022-10-30T04:55:05.864Z,99370.69
2022-10-30T04:57:32.394Z,99369.72
2022-10-30T04:59:59.016Z,99362.19
2022-10-30T05:02:26.118Z,99362.81
2022-10-30T05:04:52.763Z,99366.31
2022-10-30T05:07:19.279Z,99364.72
2022-10-30T05:09:45.896Z,99365.06
2022-10-30T05:12:13.819Z,99369.00
2022-10-30T05:14:40.474Z,99376.97
2022-10-30T05:17:07.111Z,99376.97
2022-10-30T05:19:33.659Z,99368.63
2022-10-30T05:22:00.188Z,99373.75
2022-10-30T05:24:26.690Z,99376.47
2022-10-30T05:26:53.242Z,99378.09
2022-10-30T05:29:21.104Z,99380.00
2022-10-30T05:31:47.645Z,99374.06
2022-10-30T05:34:14.423Z,99378.19
2022-10-30T05:36:40.943Z,99375.31
2022-10-30T05:39:07.578Z,99383.56
2022-10-30T05:41:34.168Z,99377.97
2022-10-30T05:44:00.730Z,99378.28
2022-10-30T05:46:28.572Z,99381.59
2022-10-30T05:48:55.118Z,99377.28
2022-10-30T05:51:21.642Z,99381.09
2022-10-30T05:53:48.290Z,99391.16
2022-10-30T05:56:14.830Z,99378.72
2022-10-30T05:58:41.434Z,99381.91
2022-10-30T06:01:08.797Z,99388.16
2022-10-30T06:03:36.641Z,99392.47
2022-10-30T06:06:03.399Z,99392.97
2022-10-30T06:08:29.904Z,99396.19
2022-10-30T06:10:56.519Z,99390.59
2022-10-30T06:13:23.050Z,99388.09
2022-10-30T06:15:49.582Z,99380.31
2022-10-30T06:18:16.231Z,99390.25
2022-10-30T06:20:44.081Z,99375.72
2022-10-30T06:23:10.962Z,99382.63
2022-10-30T06:25:41.511Z,99381.53
2022-10-30T06:28:10.098Z,99379.50
2022-10-30T06:30:36.765Z,99381.13
2022-10-30T06:33:05.351Z,99376.16
2022-10-30T06:35:32.469Z,99377.25
2022-10-30T06:38:00.529Z,99382.69
2022-10-30T06:40:27.981Z,99384.31
2022-10-30T06:42:54.689Z,99391.69
2022-10-30T06:45:23.469Z,99403.72
2022-10-30T06:47:50.290Z,99391.91
2022-10-30T06:50:19.439Z,99396.06
2022-10-30T06:52:46.440Z,99404.59
2022-10-30T06:55:14.322Z,99406.34
2022-10-30T06:57:41.226Z,99415.81
2022-10-30T07:00:09.192Z,99407.03
2022-10-30T07:02:35.798Z,99412.94
2022-10-30T07:05:02.300Z,99408.78
2022-10-30T07:07:28.996Z,99410.88
2022-10-30T07:09:55.646Z,99408.66
2022-10-30T07:12:23.576Z,99403.88
2022-10-30T07:14:50.122Z,99415.06
2022-10-30T07:17:16.643Z,99418.13
2022-10-30T07:19:43.197Z,99419.91
2022-10-30T07:22:09.715Z,99420.56
2022-10-30T07:24:36.257Z,99419.44
2022-10-30T07:27:02.822Z,99416.75
2022-10-30T07:29:30.656Z,99424.28
2022-10-30T07:32:02.927Z,99418.25
2022-10-30T07:34:30.044Z,99426.22
2022-10-30T07:36:56.566Z,99419.03
2022-10-30T07:39:23.279Z,99422.84
2022-10-30T07:41:50.282Z,99413.25
2022-10-30T07:44:17.064Z,99411.91
2022-10-30T07:46:45.074Z,99409.47
2022-10-30T07:49:11.593Z,99410.69
2022-10-30T07:51:38.250Z,99407.75
2022-10-30T07:54:04.849Z,99417.78
2022-10-30T07:56:31.350Z,99407.75
2022-10-30T07:58:57.879Z,99409.44
2022-10-30T08:01:24.557Z,99412.31
2022-10-30T08:03:52.526Z,99413.38
2022-10-30T08:06:21.639Z,99412.19
2022-10-30T08:08:51.247Z,99415.31
2022-10-30T08:11:17.794Z,99412.63
2022-10-30T08:13:44.315Z,99408.72
2022-10-30T08:16:10.843Z,99418.56
2022-10-30T08:18:37.369Z,99415.09
2022-10-30T08:21:05.831Z,99409.19
2022-10-30T08:23:32.378Z,99407.97
2022-10-30T08:25:59.105Z,99410.75
2022-10-30T08:28:29.875Z,99406.09
2022-10-30T08:31:00.254Z,99411.28
2022-10-30T08:33:26.815Z,99404.09
2022-10-30T08:35:55.502Z,99395.91
2022-10-30T08:38:24.391Z,99397.59
2022-10-30T08:40:51.276Z,99400.13
2022-10-30T08:43:18.693Z,99390.53
2022-10-30T08:45:45.270Z,99389.53
2022-10-30T08:48:16.624Z,99396.81
2022-10-30T08:50:44.030Z,99395.56
2022-10-30T08:53:14.300Z,99390.75
2022-10-30T08:55:42.686Z,99387.63
2022-10-30T08:58:09.206Z,99386.91
2022-10-30T09:00:35.922Z,99386.19
2022-10-30T09:03:03.235Z,99385.69
2022-10-30T09:05:30.247Z,99383.38
2022-10-30T09:07:57.513Z,99389.78
2022-10-30T09:10:24.433Z,99385.91
2022-10-30T09:12:55.515Z,99392.22
2022-10-30T09:15:22.055Z,99401.88
2022-10-30T09:17:48.593Z,99399.72
2022-10-30T09:20:15.473Z,99397.59
2022-10-30T09:22:42.079Z,99396.13
2022-10-30T09:25:09.472Z,99393.09
2022-10-30T09:27:37.818Z,99386.53
2022-10-30T09:30:07.229Z,99378.72
2022-10-30T09:32:33.782Z,99386.22
2022-10-30T09:35:00.443Z,99386.97
2022-10-30T09:37:27.068Z,99379.84
2022-10-30T09:39:53.637Z,99386.16
2022-10-30T09:42:40.549Z,99392.28
2022-10-30T09:45:30.334Z,99387.03
2022-10-30T09:48:18.105Z,99388.13
2022-10-30T09:50:53.065Z,99397.50
2022-10-30T09:53:26.681Z,99391.84
2022-10-30T09:56:04.625Z,99395.88
2022-10-30T09:58:46.935Z,99388.63
2022-10-30T10:01:19.557Z,99385.94
2022-10-30T10:03:58.223Z,99388.06
2022-10-30T10:06:25.826Z,99383.09
2022-10-30T10:08:56.592Z,99388.47
2022-10-30T10:11:26.962Z,99376.41
2022-10-30T10:13:57.654Z,99379.22
2022-10-30T10:16:29.155Z,99373.78
2022-10-30T10:19:00.724Z,99386.50
2022-10-30T10:21:29.754Z,99382.56
2022-10-30T10:23:59.293Z,99386.25
2022-10-30T10:26:37.157Z,99387.16
2022-10-30T10:29:20.691Z,99380.38
2022-10-30T10:32:03.232Z,99384.00
2022-10-30T10:34:47.765Z,99386.81
2022-10-30T10:37:26.223Z,99388.00
2022-10-30T10:40:10.431Z,99387.59
2022-10-30T10:42:49.054Z,99383.25
2022-10-30T10:45:27.402Z,99388.47
2022-10-30T10:48:26.160Z,99382.97
2022-10-30T10:50:58.348Z,99389.84
2022-10-30T10:53:30.520Z,99374.06
2022-10-30T10:55:59.806Z,99368.94
2022-10-30T10:58:30.971Z,99376.09
2022-10-30T11:00:59.330Z,99373.34
2022-10-30T11:03:45.919Z,99367.41
2022-10-30T11:06:20.079Z,99365.84
2022-10-30T11:08:47.652Z,99367.06
2022-10-30T11:11:14.431Z,99355.97
2022-10-30T11:13:43.353Z,99368.63
2022-10-30T11:16:22.310Z,99357.88
2022-10-30T11:18:55.695Z,99357.84
2022-10-30T11:21:24.120Z,99355.03
2022-10-30T11:23:51.583Z,99351.06
2022-10-30T11:26:33.525Z,99340.16
2022-10-30T11:29:05.614Z,99339.69
2022-10-30T11:31:33.435Z,99341.66
2022-10-30T11:34:14.196Z,99337.97
2022-10-30T11:36:40.921Z,99345.63
2022-10-30T11:39:10.371Z,99342.50
2022-10-30T11:41:37.993Z,99338.09
2022-10-30T11:44:05.663Z,99335.72
2022-10-30T11:46:35.299Z,99336.22
2022-10-30T11:49:03.274Z,99343.97
2022-10-30T11:51:33.662Z,99337.41
2022-10-30T11:54:01.317Z,99335.34
2022-10-30T11:56:28.496Z,99332.69
2022-10-30T11:58:58.030Z,99334.53
2022-10-30T12:01:26.421Z,99334.75
2022-10-30T12:03:54.701Z,99328.75
2022-10-30T12:06:28.655Z,99323.75
2022-10-30T12:08:59.821Z,99330.09
2022-10-30T12:11:29.789Z,99320.53
2022-10-30T12:13:57.316Z,99319.41
2022-10-30T12:16:24.229Z,99311.91
2022-10-30T12:19:01.337Z,99314.69
2022-10-30T12:21:34.796Z,99311.91
2022-10-30T12:24:04.097Z,99310.69
2022-10-30T12:26:30.650Z,99305.38
2022-10-30T12:29:00.577Z,99299.03
2022-10-30T12:31:35.922Z,99300.81
2022-10-30T12:34:15.602Z,99297.56
2022-10-30T12:36:50.400Z,99298.97
2022-10-30T12:39:24.032Z,99288.03
2022-10-30T12:41:59.251Z,99296.88
2022-10-30T12:44:29.675Z,99289.91
2022-10-30T12:47:03.768Z,99285.75
2022-10-30T12:49:40.337Z,99287.66
2022-10-30T12:52:15.745Z,99278.84
2022-10-30T12:54:49.921Z,99283.22
2022-10-30T12:57:20.760Z,99278.44
2022-10-30T12:59:59.983Z,99283.38
2022-10-30T13:02:38.237Z,99281.16
2022-10-30T13:05:24.553Z,99281.38
2022-10-30T13:08:02.407Z,99273.19
2022-10-30T13:10:32.800Z,99277.97
2022-10-30T13:13:05.270Z,99283.72
2022-10-30T13:15:37.309Z,99279.06
2022-10-30T13:18:15.332Z,99280.13
2022-10-30T13:20:43.891Z,99285.91
2022-10-30T13:23:16.881Z,99282.22
2022-10-30T13:25:53.846Z,99275.63
2022-10-30T13:28:26.250Z,99279.63
2022-10-30T13:31:01.082Z,99270.59
2022-10-30T13:33:36.043Z,99269.13
2022-10-30T13:36:10.702Z,99268.97
2022-10-30T13:38:46.579Z,99270.94
2022-10-30T13:41:24.752Z,99266.28
2022-10-30T13:44:02.266Z,99263.16
2022-10-30T13:46:42.857Z,99265.44
2022-10-30T13:49:25.554Z,99254.66
2022-10-30T13:52:01.379Z,99262.91
2022-10-30T13:54:32.157Z,99260.44
2022-10-30T13:57:05.698Z,99250.97
2022-10-30T13:59:50.031Z,99257.19
2022-10-30T14:02:29.379Z,99257.44
2022-10-30T14:05:01.700Z,99257.16
2022-10-30T14:07:33.859Z,99252.13
2022-10-30T14:10:06.815Z,99253.75
2022-10-30T14:13:13.217Z,99250.84
2022-10-30T14:15:42.942Z,99254.97
2022-10-30T14:18:35.427Z,99257.88
2022-10-30T14:21:43.684Z,99249.75
2022-10-30T14:24:16.820Z,99252.28
2022-10-30T14:26:53.130Z,99247.41
2022-10-30T14:29:42.469Z,99248.75
2022-10-30T14:32:41.143Z,99253.53
2022-10-30T14:35:38.784Z,99257.69
2022-10-30T14:38:35.493Z,99256.69
2022-10-30T14:41:15.010Z,99248.47
2022-10-30T14:43:56.007Z,99259.31
2022-10-30T14:46:31.475Z,99253.50
2022-10-30T14:49:05.995Z,99265.84
2022-10-30T14:51:40.357Z,99267.88
2022-10-30T14:54:18.545Z,99266.78
2022-10-30T14:56:46.907Z,99264.06
2022-10-30T14:59:31.995Z,99260.53
2022-10-30T15:02:15.859Z,99260.94
2022-10-30T15:05:03.814Z,99263.75
2022-10-30T15:07:41.481Z,99259.41
2022-10-30T15:10:17.002Z,99270.06
2022-10-30T15:13:02.602Z,99264.91
2022-10-30T15:15:30.636Z,99274.72
2022-10-30T15:18:01.240Z,99273.50
2022-10-30T15:20:30.755Z,99273.88
2022-10-30T15:23:00.646Z,99273.81
2022-10-30T15:25:31.910Z,99273.78
2022-10-30T15:27:59.157Z,99277.22
2022-10-30T15:30:27.172Z,99270.47
2022-10-30T15:32:55.139Z,99272.78
2022-10-30T15:35:23.453Z,99267.50
2022-10-30T15:38:01.067Z,99274.91
2022-10-30T15:40:29.046Z,99273.59
2022-10-30T15:42:57.635Z,99276.66
2022-10-30T15:45:29.881Z,99269.47
2022-10-30T15:48:01.963Z,99270.09
2022-10-30T15:50:28.711Z,99270.28
2022-10-30T15:52:55.855Z,99270.50
2022-10-30T15:55:28.167Z,99279.72
2022-10-30T15:58:03.454Z,99279.13
2022-10-30T16:00:33.167Z,99274.47
2022-10-30T16:03:06.812Z,99267.91
2022-10-30T16:05:34.150Z,99263.47
2022-10-30T16:08:02.778Z,99269.19
2022-10-30T16:10:33.507Z,99274.94
2022-10-30T16:13:01.493Z,99284.06
2022-10-30T16:15:30.097Z,99281.00
2022-10-30T16:18:15.242Z,99289.69
2022-10-30T16:20:44.149Z,99292.44
2022-10-30T16:23:12.458Z,99297.03
2022-10-30T16:25:45.890Z,99293.31
2022-10-30T16:28:29.588Z,99289.97
2022-10-30T16:30:57.747Z,99296.22
2022-10-30T16:33:28.138Z,99292.97
2022-10-30T16:35:56.078Z,99297.25
2022-10-30T16:38:23.728Z,99302.06
2022-10-30T16:40:51.249Z,99295.78
2022-10-30T16:43:27.893Z,99299.31
2022-10-30T16:45:55.837Z,99299.53
2022-10-30T16:48:28.067Z,99297.13
2022-10-30T16:51:02.637Z,99292.44
2022-10-30T16:53:30.268Z,99297.47
2022-10-30T16:55:58.811Z,99299.38
2022-10-30T16:58:28.141Z,99288.69
2022-10-30T17:00:57.447Z,99296.16
2022-10-30T17:03:27.734Z,99296.06
2022-10-30T17:06:00.817Z,99299.31
2022-10-30T17:08:33.090Z,99299.63
2022-10-30T17:11:01.581Z,99298.59
2022-10-30T17:13:33.465Z,99304.41
2022-10-30T17:16:20.381Z,99305.25
2022-10-30T17:18:53.397Z,99298.41
2022-10-30T17:21:23.511Z,99298.06
2022-10-30T17:23:52.576Z,99311.56
2022-10-30T17:26:19.085Z,99311.56
2022-10-30T17:28:46.952Z,99308.31
2022-10-30T17:31:22.170Z,99308.47
2022-10-30T17:34:13.357Z,99324.13
2022-10-30T17:36:40.324Z,99318.25
2022-10-30T17:39:07.104Z,99325.91
2022-10-30T17:41:34.044Z,99333.28
2022-10-30T17:44:00.827Z,99334.00
2022-10-30T17:46:27.510Z,99336.66
2022-10-30T17:48:54.114Z,99342.13
2022-10-30T17:51:22.049Z,99342.13
2022-10-30T17:53:49.252Z,99353.94
2022-10-30T17:56:19.713Z,99356.25
2022-10-30T17:58:46.365Z,99356.25
2022-10-30T18:01:15.637Z,99358.44
2022-10-30T18:03:42.255Z,99359.28
2022-10-30T18:06:15.817Z,99360.97
2022-10-30T18:08:46.388Z,99355.34
2022-10-30T18:11:17.650Z,99366.16
2022-10-30T18:13:44.145Z,99355.06
2022-10-30T18:16:12.549Z,99360.13
2022-10-30T18:18:39.103Z,99357.81
2022-10-30T18:21:06.141Z,99357.34
2022-10-30T18:23:51.481Z,99360.81
2022-10-30T18:26:22.870Z,99370.75
2022-10-30T18:28:49.851Z,99370.84
2022-10-30T18:31:18.929Z,99374.09
2022-10-30T18:33:46.338Z,99378.19
2022-10-30T18:36:14.167Z,99383.00
2022-10-30T18:38:40.732Z,99388.47
2022-10-30T18:41:13.607Z,99391.59
2022-10-30T18:43:45.640Z,99394.34
2022-10-30T18:46:14.366Z,99402.44
2022-10-30T18:48:40.924Z,99403.03
2022-10-30T18:51:15.324Z,99405.94
2022-10-30T18:53:41.871Z,99406.50
2022-10-30T18:56:09.920Z,99406.88
2022-10-30T18:58:36.529Z,99412.34
2022-10-30T19:01:11.867Z,99412.88
2022-10-30T19:03:39.214Z,99414.59
2022-10-30T19:06:09.620Z,99408.94
2022-10-30T19:08:36.161Z,99405.88
2022-10-30T19:11:02.734Z,99404.47
2022-10-30T19:13:29.331Z,99420.66
2022-10-30T19:16:00.308Z,99417.91
2022-10-30T19:18:28.923Z,99416.28
2022-10-30T19:21:04.485Z,99415.59
2022-10-30T19:23:32.494Z,99416.19
2022-10-30T19:25:59.123Z,99418.16
2022-10-30T19:28:25.671Z,99420.13
2022-10-30T19:30:52.193Z,99420.28
2022-10-30T19:33:20.725Z,99422.25
2022-10-30T19:35:54.602Z,99426.22
2022-10-30T19:38:22.690Z,99425.34
2022-10-30T19:40:50.069Z,99424.69
2022-10-30T19:43:17.355Z,99422.50
2022-10-30T19:45:43.986Z,99429.31
2022-10-30T19:48:20.764Z,99439.78
2022-10-30T19:50:51.470Z,99436.59
2022-10-30T19:53:19.320Z,99440.28
2022-10-30T19:55:47.015Z,99445.69
2022-10-30T19:58:15.087Z,99439.97
2022-10-30T20:00:43.294Z,99447.03
2022-10-30T20:03:12.191Z,99442.94
2022-10-30T20:05:40.590Z,99439.94
2022-10-30T20:08:10.659Z,99443.47
2022-10-30T20:10:40.905Z,99439.06
2022-10-30T20:13:08.559Z,99444.59
2022-10-30T20:15:35.309Z,99450.03
2022-10-30T20:18:03.172Z,99447.19
2022-10-30T20:20:32.506Z,99455.44
2022-10-30T20:22:59.108Z,99454.44
2022-10-30T20:25:27.146Z,99461.09
2022-10-30T20:28:03.873Z,99465.34
2022-10-30T20:30:33.365Z,99469.06
2022-10-30T20:33:00.227Z,99467.91
2022-10-30T20:35:27.193Z,99458.72
2022-10-30T20:37:58.908Z,99468.88
2022-10-30T20:40:26.207Z,99469.69
2022-10-30T20:42:55.943Z,99469.97
2022-10-30T20:45:27.945Z,99477.31
2022-10-30T20:47:54.493Z,99467.13
2022-10-30T20:50:21.403Z,99469.50
2022-10-30T20:52:48.084Z,99469.84
2022-10-30T20:55:14.919Z,99477.97
2022-10-30T20:57:41.613Z,99480.09
2022-10-30T21:00:11.789Z,99482.31
2022-10-30T21:02:40.419Z,99482.31
2022-10-30T21:05:17.359Z,99482.13
2022-10-30T21:07:55.133Z,99484.44
2022-10-30T21:10:24.431Z,99486.47
2022-10-30T21:15:25.973Z,99488.13
2022-10-30T21:17:53.935Z,99495.53
2022-10-30T21:20:20.562Z,99492.41
2022-10-30T21:22:47.194Z,99500.66
2022-10-30T21:25:13.761Z,99500.13
2022-10-30T21:27:40.294Z,99499.13
2022-10-30T21:30:08.354Z,99499.09
2022-10-30T21:32:34.932Z,99502.63
2022-10-30T21:35:03.004Z,99498.19
2022-10-30T21:37:33.583Z,99496.78
2022-10-30T21:40:00.217Z,99497.72
2022-10-30T21:44:58.702Z,99500.34
2022-10-30T21:47:25.286Z,99494.63
2022-10-30T21:49:51.928Z,99491.91
2022-10-30T21:52:19.803Z,99489.16
2022-10-30T21:54:46.311Z,99493.84
2022-10-30T21:57:12.835Z,99484.00
2022-10-30T21:59:39.464Z,99486.41
2022-10-30T22:02:06.503Z,99491.34
2022-10-30T22:04:33.318Z,99491.81
2022-10-30T22:06:59.919Z,99485.53
2022-10-30T22:09:27.969Z,99490.09
2022-10-30T22:11:54.518Z,99489.19
2022-10-30T22:14:21.032Z,99486.44
2022-10-30T22:16:48.088Z,99493.41
2022-10-30T22:19:14.743Z,99487.78
2022-10-30T22:21:41.250Z,99482.50
2022-10-30T22:24:08.237Z,99486.09
2022-10-30T22:26:36.093Z,99495.63
2022-10-30T22:29:02.733Z,99495.31
2022-10-30T22:31:29.928Z,99489.53
2022-10-30T22:33:58.313Z,99488.72
2022-10-30T22:36:26.375Z,99481.44
2022-10-30T22:38:58.454Z,99486.00
2022-10-30T22:41:27.133Z,99499.09
2022-10-30T22:43:56.960Z,99493.22
2022-10-30T22:46:26.221Z,99494.03
2022-10-30T22:48:52.861Z,99508.50
2022-10-30T22:51:20.318Z,99505.19
2022-10-30T22:53:48.382Z,99508.38
2022-10-30T22:56:17.097Z,99505.69
2022-10-30T22:58:44.373Z,99507.16
2022-10-30T23:01:14.352Z,99506.06
2022-10-30T23:03:41.436Z,99509.63
2022-10-30T23:06:08.885Z,99513.66
2022-10-30T23:08:36.088Z,99510.28
2022-10-30T23:11:03.124Z,99516.88
2022-10-30T23:13:30.573Z,99518.81
2022-10-30T23:16:01.431Z,99519.13
2022-10-30T23:18:30.208Z,99520.22
2022-10-30T23:20:59.862Z,99522.78
2022-10-30T23:23:26.439Z,99527.00
2022-10-30T23:25:52.962Z,99528.25
2022-10-30T23:28:19.533Z,99529.53
2022-10-30T23:30:46.239Z,99537.56
2022-10-30T23:33:13.047Z,99535.31
2022-10-30T23:35:40.947Z,99527.94
2022-10-30T23:38:07.471Z,99529.56
2022-10-30T23:40:34.127Z,99532.28
2022-10-30T23:43:01.006Z,99526.97
2022-10-30T23:45:27.763Z,99528.75
2022-10-30T23:47:54.306Z,99530.47
2022-10-30T23:50:20.822Z,99533.38
2022-10-30T23:52:48.740Z,99529.66
2022-10-30T23:55:15.507Z,99538.16
2022-10-30T23:57:42.042Z,99537.69
